createdAt,value
2023-04-10T00:00:33.835Z,1.45
2023-04-10T00:03:02.394Z,6.57
2023-04-10T00:05:29.245Z,2.53
2023-04-10T00:07:56.218Z,1.10
2023-04-10T00:10:22.941Z,0.88
2023-04-10T00:12:51.265Z,1.20
2023-04-10T00:15:19.195Z,1.95
2023-04-10T00:17:45.935Z,2.28
2023-04-10T00:20:12.883Z,5.28
2023-04-10T00:22:39.549Z,2.40
2023-04-10T00:25:06.633Z,1.30
2023-04-10T00:27:33.396Z,1.30
2023-04-10T00:30:01.545Z,1.10
2023-04-10T00:32:29.413Z,0.95
2023-04-10T00:34:56.087Z,5.13
2023-04-10T00:37:23.858Z,2.80
2023-04-10T00:39:51.853Z,0.70
2023-04-10T00:42:19.694Z,2.13
2023-04-10T00:44:46.375Z,1.25
2023-04-10T00:47:14.339Z,0.75
2023-04-10T00:49:41.922Z,2.28
2023-04-10T00:52:09.219Z,1.25
2023-04-10T00:54:37.945Z,5.85
2023-04-10T00:57:07.983Z,3.85
2023-04-10T00:59:35.610Z,3.10
2023-04-10T01:02:02.876Z,3.35
2023-04-10T01:04:31.292Z,1.02
2023-04-10T01:07:54.973Z,1.85
2023-04-10T01:11:08.279Z,3.10
2023-04-10T01:13:50.172Z,1.33
2023-04-10T01:16:24.868Z,1.58
2023-04-10T01:18:57.548Z,1.08
2023-04-10T01:21:24.916Z,1.92
2023-04-10T01:24:19.908Z,1.00
2023-04-10T01:27:04.490Z,1.38
2023-04-10T01:29:34.101Z,2.97
2023-04-10T01:32:13.766Z,1.27
2023-04-10T01:34:50.476Z,3.88
2023-04-10T01:37:22.330Z,3.20
2023-04-10T01:40:00.227Z,1.08
2023-04-10T01:42:30.895Z,5.55
2023-04-10T01:44:59.654Z,2.58
2023-04-10T01:47:27.997Z,1.13
2023-04-10T01:49:56.045Z,1.20
2023-04-10T01:52:24.221Z,2.10
2023-04-10T01:54:52.132Z,0.95
2023-04-10T01:57:21.167Z,2.25
2023-04-10T01:59:47.830Z,8.10
2023-04-10T02:02:15.197Z,0.80
2023-04-10T02:04:42.446Z,5.32
2023-04-10T02:07:26.490Z,2.13
2023-04-10T02:09:58.554Z,0.85
2023-04-10T02:12:45.642Z,1.35
2023-04-10T02:15:12.890Z,1.42
2023-04-10T02:17:40.660Z,1.20
2023-04-10T02:20:09.226Z,2.65
2023-04-10T02:22:38.189Z,2.42
2023-04-10T02:25:06.260Z,1.73
2023-04-10T02:27:36.757Z,3.17
2023-04-10T02:30:04.603Z,4.15
2023-04-10T02:32:34.493Z,2.90
2023-04-10T02:35:05.584Z,3.40
2023-04-10T02:37:33.256Z,1.77
2023-04-10T02:40:00.782Z,0.55
2023-04-10T02:42:27.616Z,1.10
2023-04-10T02:44:54.320Z,2.85
2023-04-10T02:47:21.243Z,4.57
2023-04-10T02:49:48.391Z,1.20
2023-04-10T02:52:15.000Z,1.63
2023-04-10T02:54:41.779Z,1.95
2023-04-10T02:57:08.468Z,2.97
2023-04-10T02:59:35.167Z,2.40
2023-04-10T03:02:01.947Z,6.63
2023-04-10T03:04:29.186Z,2.42
2023-04-10T03:06:56.686Z,4.97
2023-04-10T03:09:23.316Z,2.38
2023-04-10T03:11:49.910Z,5.15
2023-04-10T03:14:16.973Z,2.92
2023-04-10T03:16:44.005Z,2.63
2023-04-10T03:19:12.729Z,5.15
2023-04-10T03:21:39.514Z,4.53
2023-04-10T03:24:07.940Z,5.57
2023-04-10T03:26:34.612Z,1.88
2023-04-10T03:29:02.426Z,3.17
2023-04-10T03:31:29.734Z,2.03
2023-04-10T03:33:58.362Z,4.40
2023-04-10T03:36:25.300Z,2.08
2023-04-10T03:38:52.909Z,1.95
2023-04-10T03:41:20.830Z,2.17
2023-04-10T03:43:47.427Z,2.35
2023-04-10T03:46:15.497Z,3.55
2023-04-10T03:48:42.170Z,5.13
2023-04-10T03:51:08.838Z,1.45
2023-04-10T03:53:36.352Z,1.80
2023-04-10T03:56:03.721Z,3.35
2023-04-10T03:58:31.684Z,2.30
2023-04-10T04:00:58.312Z,5.50
2023-04-10T04:03:25.334Z,2.60
2023-04-10T04:05:52.454Z,3.72
2023-04-10T04:08:19.136Z,2.63
2023-04-10T04:10:45.756Z,1.80
2023-04-10T04:13:13.713Z,3.45
2023-04-10T04:15:41.849Z,1.98
2023-04-10T04:18:09.529Z,3.30
2023-04-10T04:20:36.309Z,2.45
2023-04-10T04:23:02.961Z,3.22
2023-04-10T04:25:29.611Z,2.50
2023-04-10T04:27:58.020Z,3.25
2023-04-10T04:30:24.714Z,3.42
2023-04-10T04:32:51.416Z,1.48
2023-04-10T04:35:18.093Z,2.67
2023-04-10T04:37:44.713Z,2.95
2023-04-10T04:40:11.704Z,2.42
2023-04-10T04:42:38.373Z,5.75
2023-04-10T04:45:05.719Z,4.65
2023-04-10T04:47:32.369Z,3.75
2023-04-10T04:50:00.305Z,2.33
2023-04-10T04:52:27.585Z,5.13
2023-04-10T04:54:54.245Z,3.08
2023-04-10T04:57:21.438Z,3.13
2023-04-10T04:59:48.045Z,3.17
2023-04-10T05:02:16.218Z,3.13
2023-04-10T05:04:43.324Z,3.60
2023-04-10T05:07:10.314Z,3.13
2023-04-10T05:09:36.938Z,2.67
2023-04-10T05:12:03.940Z,3.47
2023-04-10T05:14:33.957Z,3.22
2023-04-10T05:17:03.619Z,3.30
2023-04-10T05:19:30.494Z,3.28
2023-04-10T05:21:57.521Z,2.80
2023-04-10T05:24:24.213Z,5.20
2023-04-10T05:26:50.881Z,8.52
2023-04-10T05:29:18.913Z,4.90
2023-04-10T05:31:45.696Z,2.55
2023-04-10T05:34:13.841Z,3.00
2023-04-10T05:36:40.494Z,3.13
2023-04-10T05:39:07.126Z,4.32
2023-04-10T05:41:33.855Z,3.70
2023-04-10T05:44:00.512Z,3.10
2023-04-10T05:46:27.212Z,3.92
2023-04-10T05:48:53.998Z,9.43
2023-04-10T05:51:20.794Z,3.10
2023-04-10T05:53:47.443Z,3.05
2023-04-10T05:56:14.255Z,4.15
2023-04-10T05:58:42.353Z,5.85
2023-04-10T06:01:09.019Z,5.05
2023-04-10T06:03:36.330Z,5.70
2023-04-10T06:06:03.516Z,6.78
2023-04-10T06:08:30.199Z,7.95
2023-04-10T06:10:57.286Z,7.60
2023-04-10T06:13:25.910Z,8.20
2023-04-10T06:15:52.539Z,3.58
2023-04-10T06:18:20.670Z,3.72
2023-04-10T06:20:47.328Z,4.90
2023-04-10T06:23:14.236Z,2.55
2023-04-10T06:25:41.026Z,4.72
2023-04-10T06:28:07.646Z,6.40
2023-04-10T06:30:35.979Z,6.82
2023-04-10T06:33:04.141Z,3.70
2023-04-10T06:35:32.675Z,6.13
2023-04-10T06:37:59.300Z,4.53
2023-04-10T06:40:27.200Z,6.60
2023-04-10T06:42:53.806Z,4.75
2023-04-10T06:45:22.717Z,3.53
2023-04-10T06:47:50.929Z,5.70
2023-04-10T06:50:17.584Z,4.50
2023-04-10T06:52:45.340Z,6.55
2023-04-10T06:55:13.061Z,6.90
2023-04-10T06:57:40.404Z,6.60
2023-04-10T07:00:08.130Z,4.97
2023-04-10T07:02:35.445Z,4.85
2023-04-10T07:05:02.453Z,5.45
2023-04-10T07:07:29.360Z,5.15
2023-04-10T07:09:59.166Z,4.05
2023-04-10T07:12:26.638Z,6.72
2023-04-10T07:14:54.461Z,3.95
2023-04-10T07:17:22.103Z,4.28
2023-04-10T07:19:48.787Z,4.60
2023-04-10T07:22:15.972Z,3.03
2023-04-10T07:24:42.941Z,4.82
2023-04-10T07:27:09.608Z,6.00
2023-04-10T07:29:37.487Z,4.75
2023-04-10T07:32:04.489Z,5.82
2023-04-10T07:34:33.326Z,6.40
2023-04-10T07:37:01.358Z,7.38
2023-04-10T07:39:27.951Z,2.90
2023-04-10T07:41:55.417Z,6.10
2023-04-10T07:44:22.361Z,3.22
2023-04-10T07:46:49.182Z,5.15
2023-04-10T07:49:15.765Z,4.50
2023-04-10T07:51:43.685Z,4.13
2023-04-10T07:54:11.723Z,6.28
2023-04-10T07:56:38.314Z,3.97
2023-04-10T07:59:07.449Z,3.53
2023-04-10T08:01:34.212Z,5.07
2023-04-10T08:04:04.770Z,10.32
2023-04-10T08:06:33.398Z,14.00
2023-04-10T08:09:01.665Z,31.48
2023-04-10T08:11:37.945Z,27.75
2023-04-10T08:14:07.240Z,33.70
2023-04-10T08:16:35.985Z,21.75
2023-04-10T08:19:03.488Z,39.63
2023-04-10T08:21:34.471Z,21.67
2023-04-10T08:24:02.743Z,11.02
2023-04-10T08:26:29.823Z,11.85
2023-04-10T08:28:58.982Z,13.65
2023-04-10T08:31:28.088Z,10.70
2023-04-10T08:33:55.611Z,7.30
2023-04-10T08:36:22.759Z,5.35
2023-04-10T08:38:49.432Z,3.42
2023-04-10T08:41:18.359Z,5.97
2023-04-10T08:43:46.354Z,6.70
2023-04-10T08:46:18.534Z,13.77
2023-04-10T08:49:02.290Z,7.43
2023-04-10T08:51:36.078Z,9.27
2023-04-10T08:54:08.258Z,6.77
2023-04-10T08:56:37.789Z,7.20
2023-04-10T08:59:04.822Z,4.35
2023-04-10T09:01:31.788Z,4.32
2023-04-10T09:03:59.942Z,4.60
2023-04-10T09:06:27.354Z,3.75
2023-04-10T09:08:53.986Z,5.50
2023-04-10T09:11:21.927Z,9.75
2023-04-10T09:13:48.569Z,5.97
2023-04-10T09:16:16.810Z,3.97
2023-04-10T09:18:45.982Z,4.40
2023-04-10T09:21:18.757Z,5.28
2023-04-10T09:23:48.437Z,6.43
2023-04-10T09:26:32.734Z,5.60
2023-04-10T09:29:04.337Z,4.25
2023-04-10T09:31:36.223Z,6.65
2023-04-10T09:34:24.202Z,4.05
2023-04-10T09:36:56.853Z,5.95
2023-04-10T09:39:33.385Z,3.47
2023-04-10T09:42:01.452Z,6.55
2023-04-10T09:44:38.435Z,2.38
2023-04-10T09:47:15.574Z,3.38
2023-04-10T09:49:51.195Z,3.42
2023-04-10T09:52:26.461Z,3.65
2023-04-10T09:54:54.994Z,3.10
2023-04-10T09:57:23.177Z,5.00
2023-04-10T09:59:54.561Z,4.78
2023-04-10T10:02:25.491Z,6.47
2023-04-10T10:04:54.362Z,7.78
2023-04-10T10:07:22.413Z,3.65
2023-04-10T10:09:52.325Z,3.80
2023-04-10T10:12:34.209Z,2.78
2023-04-10T10:15:05.001Z,4.28
2023-04-10T10:17:43.304Z,4.13
2023-04-10T10:20:13.289Z,2.42
2023-04-10T10:22:40.739Z,3.13
2023-04-10T10:25:09.156Z,3.92
2023-04-10T10:27:37.814Z,6.28
2023-04-10T10:30:20.293Z,2.17
2023-04-10T10:32:54.906Z,4.10
2023-04-10T10:35:22.978Z,6.00
2023-04-10T10:37:50.869Z,3.65
2023-04-10T10:40:27.114Z,1.98
2023-04-10T10:43:20.532Z,3.05
2023-04-10T10:45:55.748Z,9.07
2023-04-10T10:48:22.438Z,3.15
2023-04-10T10:51:03.604Z,3.55
2023-04-10T10:53:43.137Z,2.20
2023-04-10T10:56:18.584Z,4.60
2023-04-10T10:58:57.770Z,5.22
2023-04-10T11:01:24.927Z,2.83
2023-04-10T11:03:52.233Z,4.13
2023-04-10T11:06:43.628Z,4.32
2023-04-10T11:09:49.721Z,2.80
2023-04-10T11:12:20.085Z,4.15
2023-04-10T11:15:00.732Z,2.30
2023-04-10T11:17:52.197Z,4.15
2023-04-10T11:20:21.998Z,3.63
2023-04-10T11:23:11.701Z,3.83
2023-04-10T11:25:52.416Z,1.98
2023-04-10T11:28:33.978Z,1.38
2023-04-10T11:31:21.779Z,5.47
2023-04-10T11:33:57.840Z,2.83
2023-04-10T11:36:26.399Z,1.52
2023-04-10T11:39:00.874Z,6.18
2023-04-10T11:41:28.827Z,3.05
2023-04-10T11:43:55.488Z,1.15
2023-04-10T11:46:22.616Z,1.70
2023-04-10T11:49:02.964Z,2.15
2023-04-10T11:51:31.074Z,1.33
2023-04-10T11:54:08.613Z,5.80
2023-04-10T11:56:36.391Z,3.97
2023-04-10T11:59:07.504Z,2.85
2023-04-10T12:01:34.589Z,1.48
2023-04-10T12:04:02.578Z,1.30
2023-04-10T12:06:30.792Z,1.10
2023-04-10T12:08:57.629Z,4.78
2023-04-10T12:11:25.625Z,3.10
2023-04-10T12:13:57.810Z,1.15
2023-04-10T12:16:25.978Z,5.43
2023-04-10T12:18:54.844Z,3.22
2023-04-10T12:21:21.989Z,2.17
2023-04-10T12:23:48.614Z,0.90
2023-04-10T12:26:17.291Z,1.58
2023-04-10T12:28:58.339Z,2.92
2023-04-10T12:31:32.196Z,0.85
2023-04-10T12:34:01.116Z,3.10
2023-04-10T12:36:32.099Z,2.92
2023-04-10T12:39:00.333Z,3.35
2023-04-10T12:41:31.274Z,4.43
2023-04-10T12:44:12.427Z,1.25
2023-04-10T12:46:41.659Z,1.60
2023-04-10T12:49:15.726Z,2.25
2023-04-10T12:51:44.072Z,1.52
2023-04-10T12:54:10.900Z,2.38
2023-04-10T12:56:45.863Z,2.05
2023-04-10T12:59:12.691Z,1.27
2023-04-10T13:01:40.006Z,1.25
2023-04-10T13:04:07.441Z,0.90
2023-04-10T13:06:44.166Z,1.38
2023-04-10T13:09:11.145Z,1.55
2023-04-10T13:11:38.968Z,1.50
2023-04-10T13:14:05.602Z,2.65
2023-04-10T13:16:33.554Z,1.20
2023-04-10T13:19:00.923Z,3.90
2023-04-10T13:21:28.560Z,1.20
2023-04-10T13:23:58.140Z,0.85
2023-04-10T13:26:24.940Z,1.15
2023-04-10T13:28:51.668Z,2.28
2023-04-10T13:31:18.568Z,1.30
2023-04-10T13:33:48.308Z,2.25
2023-04-10T13:36:17.147Z,1.15
2023-04-10T13:38:43.840Z,1.95
2023-04-10T13:41:12.009Z,2.75
2023-04-10T13:43:38.651Z,1.67
2023-04-10T13:46:07.312Z,2.20
2023-04-10T13:48:40.749Z,5.97
2023-04-10T13:51:08.381Z,1.25
2023-04-10T13:53:35.655Z,3.35
2023-04-10T13:56:02.517Z,1.75
2023-04-10T13:58:32.017Z,2.95
2023-04-10T14:00:59.094Z,3.08
2023-04-10T14:03:26.351Z,0.77
2023-04-10T14:05:55.883Z,2.70
2023-04-10T14:08:22.482Z,1.95
2023-04-10T14:10:53.277Z,1.98
2023-04-10T14:13:20.272Z,1.65
2023-04-10T14:15:48.387Z,0.82
2023-04-10T14:18:17.593Z,2.38
2023-04-10T14:20:44.759Z,1.73
2023-04-10T14:23:18.321Z,3.00
2023-04-10T14:25:45.880Z,1.00
2023-04-10T14:28:17.594Z,23.60
2023-04-10T14:30:50.886Z,2.97
2023-04-10T14:33:20.045Z,1.80
2023-04-10T14:35:47.863Z,1.58
2023-04-10T14:38:16.797Z,3.00
2023-04-10T14:40:46.905Z,1.00
2023-04-10T14:43:13.534Z,1.58
2023-04-10T14:45:40.176Z,2.35
2023-04-10T14:48:06.851Z,2.00
2023-04-10T14:50:34.000Z,1.58
2023-04-10T14:53:00.846Z,1.92
2023-04-10T14:55:29.646Z,1.95
2023-04-10T14:57:58.223Z,0.90
2023-04-10T15:00:25.644Z,1.73
2023-04-10T15:02:52.825Z,1.08
2023-04-10T15:05:21.617Z,1.48
2023-04-10T15:07:48.209Z,1.08
2023-04-10T15:10:14.863Z,0.85
2023-04-10T15:12:42.591Z,2.20
2023-04-10T15:15:09.831Z,1.58
2023-04-10T15:17:36.467Z,4.38
2023-04-10T15:20:05.053Z,1.33
2023-04-10T15:22:31.681Z,3.00
2023-04-10T15:24:58.338Z,1.42
2023-04-10T15:27:25.008Z,2.25
2023-04-10T15:29:51.718Z,1.50
2023-04-10T15:32:18.501Z,3.50
2023-04-10T15:34:45.230Z,0.98
2023-04-10T15:37:11.965Z,4.47
2023-04-10T15:39:38.721Z,1.42
2023-04-10T15:42:07.499Z,3.25
2023-04-10T15:44:34.138Z,1.70
2023-04-10T15:47:00.835Z,2.38
2023-04-10T15:49:37.004Z,3.83
2023-04-10T15:52:15.499Z,1.70
2023-04-10T15:54:42.481Z,1.60
2023-04-10T15:57:10.491Z,1.40
2023-04-10T15:59:37.109Z,1.27
2023-04-10T16:02:03.900Z,2.05
2023-04-10T16:04:31.415Z,2.70
2023-04-10T16:06:58.331Z,1.52
2023-04-10T16:09:27.058Z,1.73
2023-04-10T16:11:54.910Z,4.68
2023-04-10T16:14:24.614Z,1.95
2023-04-10T16:16:51.364Z,1.17
2023-04-10T16:19:19.404Z,2.53
2023-04-10T16:21:46.136Z,2.35
2023-04-10T16:24:12.824Z,3.35
2023-04-10T16:26:39.459Z,4.28
2023-04-10T16:29:06.533Z,2.08
2023-04-10T16:31:33.368Z,3.95
2023-04-10T16:34:02.511Z,3.35
2023-04-10T16:36:29.148Z,3.72
2023-04-10T16:38:57.162Z,1.33
2023-04-10T16:41:24.529Z,3.38
2023-04-10T16:43:52.554Z,4.63
2023-04-10T16:46:21.228Z,5.63
2023-04-10T16:48:47.821Z,2.35
2023-04-10T16:51:18.385Z,4.00
2023-04-10T16:53:45.397Z,2.65
2023-04-10T16:56:12.170Z,1.58
2023-04-10T16:58:41.102Z,2.20
2023-04-10T17:01:19.243Z,2.53
2023-04-10T17:03:48.431Z,3.45
2023-04-10T17:06:16.321Z,1.67
2023-04-10T17:08:43.779Z,5.68
2023-04-10T17:11:13.744Z,4.68
2023-04-10T17:13:41.327Z,2.17
2023-04-10T17:16:08.702Z,6.75
2023-04-10T17:18:35.472Z,2.05
2023-04-10T17:21:02.157Z,2.70
2023-04-10T17:23:29.358Z,6.30
2023-04-10T17:25:57.106Z,1.83
2023-04-10T17:28:23.744Z,3.15
2023-04-10T17:30:50.346Z,2.67
2023-04-10T17:33:18.317Z,3.08
2023-04-10T17:35:46.277Z,1.50
2023-04-10T17:38:13.373Z,1.30
2023-04-10T17:40:41.017Z,2.17
2023-04-10T17:43:07.959Z,4.05
2023-04-10T17:45:40.610Z,2.92
2023-04-10T17:48:07.717Z,6.60
2023-04-10T17:50:35.643Z,6.30
2023-04-10T17:53:02.425Z,5.45
2023-04-10T17:55:29.185Z,4.30
2023-04-10T17:57:57.636Z,5.35
2023-04-10T18:00:24.513Z,3.72
2023-04-10T18:02:53.078Z,3.55
2023-04-10T18:05:20.444Z,5.95
2023-04-10T18:07:47.600Z,4.95
2023-04-10T18:10:14.668Z,3.45
2023-04-10T18:12:42.617Z,3.72
2023-04-10T18:15:09.554Z,4.57
2023-04-10T18:17:38.775Z,5.47
2023-04-10T18:20:07.269Z,3.42
2023-04-10T18:22:34.015Z,3.75
2023-04-10T18:25:03.688Z,2.38
2023-04-10T18:27:34.821Z,6.38
2023-04-10T18:30:01.649Z,5.13
2023-04-10T18:32:28.386Z,2.45
2023-04-10T18:34:55.562Z,4.95
2023-04-10T18:37:22.288Z,2.75
2023-04-10T18:39:48.956Z,8.68
2023-04-10T18:42:15.973Z,4.97
2023-04-10T18:44:42.688Z,3.90
2023-04-10T18:47:12.296Z,5.38
2023-04-10T18:49:38.938Z,3.53
2023-04-10T18:52:05.771Z,5.47
2023-04-10T18:54:34.153Z,2.92
2023-04-10T18:57:01.194Z,6.32
2023-04-10T18:59:28.409Z,8.20
2023-04-10T19:01:56.416Z,3.75
2023-04-10T19:04:25.908Z,3.47
2023-04-10T19:06:53.984Z,3.78
2023-04-10T19:09:20.622Z,1.50
2023-04-10T19:11:47.311Z,2.67
2023-04-10T19:14:15.544Z,4.32
2023-04-10T19:16:42.162Z,4.60
2023-04-10T19:19:08.822Z,3.15
2023-04-10T19:21:36.405Z,3.05
2023-04-10T19:24:03.052Z,6.63
2023-04-10T19:26:29.791Z,5.47
2023-04-10T19:28:56.633Z,4.68
2023-04-10T19:31:23.953Z,3.75
2023-04-10T19:33:50.802Z,4.10
2023-04-10T19:36:18.330Z,2.08
2023-04-10T19:38:49.728Z,5.90
2023-04-10T19:41:16.988Z,2.58
2023-04-10T19:43:43.649Z,5.93
2023-04-10T19:46:17.881Z,1.95
2023-04-10T19:48:44.854Z,6.70
2023-04-10T19:51:12.944Z,2.13
2023-04-10T19:53:39.609Z,3.90
2023-04-10T19:56:06.844Z,4.63
2023-04-10T19:58:40.605Z,2.92
2023-04-10T20:01:12.340Z,4.80
2023-04-10T20:03:41.111Z,3.22
2023-04-10T20:06:08.548Z,4.32
2023-04-10T20:08:35.714Z,1.55
2023-04-10T20:11:05.958Z,7.35
2023-04-10T20:13:33.949Z,1.65
2023-04-10T20:16:00.903Z,2.25
2023-04-10T20:18:27.764Z,4.68
2023-04-10T20:20:55.489Z,3.40
2023-04-10T20:23:22.098Z,5.43
2023-04-10T20:25:49.218Z,2.33
2023-04-10T20:28:17.482Z,2.65
2023-04-10T20:30:44.173Z,2.20
2023-04-10T20:33:12.969Z,7.18
2023-04-10T20:35:39.831Z,3.30
2023-04-10T20:38:06.576Z,3.05
2023-04-10T20:40:33.246Z,1.77
2023-04-10T20:42:59.935Z,2.03
2023-04-10T20:45:26.512Z,4.85
2023-04-10T20:47:53.396Z,2.90
2023-04-10T20:50:20.133Z,2.67
2023-04-10T20:52:46.766Z,2.03
2023-04-10T20:55:13.572Z,1.48
2023-04-10T20:57:40.358Z,1.60
2023-04-10T21:00:08.282Z,3.30
2023-04-10T21:02:35.079Z,3.70
2023-04-10T21:05:02.766Z,2.30
2023-04-10T21:07:29.405Z,1.50
2023-04-10T21:09:56.061Z,6.60
2023-04-10T21:12:23.453Z,1.08
2023-04-10T21:14:50.104Z,1.25
2023-04-10T21:17:18.691Z,9.43
2023-04-10T21:19:45.622Z,4.10
2023-04-10T21:22:13.689Z,1.60
2023-04-10T21:24:41.771Z,1.85
2023-04-10T21:27:09.981Z,0.65
2023-04-10T21:29:36.565Z,2.08
2023-04-10T21:32:03.258Z,1.38
2023-04-10T21:34:30.471Z,1.13
2023-04-10T21:36:57.090Z,3.30
2023-04-10T21:39:24.986Z,1.90
2023-04-10T21:41:52.916Z,3.85
2023-04-10T21:44:19.569Z,2.65
2023-04-10T21:46:46.266Z,1.75
2023-04-10T21:49:13.248Z,3.13
2023-04-10T21:51:42.758Z,1.15
2023-04-10T21:54:09.353Z,1.13
2023-04-10T21:56:38.310Z,3.33
2023-04-10T21:59:04.987Z,1.00
2023-04-10T22:01:31.962Z,3.85
2023-04-10T22:03:58.717Z,1.27
2023-04-10T22:06:26.464Z,1.20
2023-04-10T22:08:53.258Z,1.77
2023-04-10T22:11:21.416Z,1.02
2023-04-10T22:13:48.174Z,1.60
2023-04-10T22:16:14.764Z,2.03
2023-04-10T22:18:41.410Z,1.77
2023-04-10T22:21:08.308Z,1.45
2023-04-10T22:23:34.912Z,1.77
2023-04-10T22:26:01.624Z,1.42
2023-04-10T22:28:29.105Z,1.10
2023-04-10T22:30:55.834Z,1.80
2023-04-10T22:33:22.515Z,2.95
2023-04-10T22:35:49.204Z,1.95
2023-04-10T22:38:16.196Z,3.92
2023-04-10T22:40:42.856Z,1.60
2023-04-10T22:43:12.274Z,2.08
2023-04-10T22:45:40.449Z,1.48
2023-04-10T22:48:07.103Z,3.47
2023-04-10T22:50:33.762Z,1.00
2023-04-10T22:53:00.543Z,1.63
2023-04-10T22:55:27.296Z,1.38
2023-04-10T22:57:55.346Z,1.95
2023-04-10T23:00:22.120Z,3.88
2023-04-10T23:02:49.309Z,3.15
2023-04-10T23:05:16.447Z,0.75
2023-04-10T23:07:43.121Z,2.67
2023-04-10T23:10:09.888Z,1.95
2023-04-10T23:12:37.748Z,1.48
2023-04-10T23:15:06.186Z,1.23
2023-04-10T23:17:32.783Z,3.75
2023-04-10T23:19:59.465Z,1.13
2023-04-10T23:22:26.158Z,1.70
2023-04-10T23:24:54.503Z,2.45
2023-04-10T23:27:21.218Z,3.35
2023-04-10T23:29:48.722Z,2.78
2023-04-10T23:32:18.002Z,3.00
2023-04-10T23:34:44.632Z,1.67
2023-04-10T23:37:12.661Z,1.70
2023-04-10T23:39:39.769Z,2.85
2023-04-10T23:42:06.490Z,2.75
2023-04-10T23:44:33.083Z,1.00
2023-04-10T23:46:59.816Z,2.50
2023-04-10T23:49:26.527Z,1.60
2023-04-10T23:51:53.211Z,4.32
2023-04-10T23:54:20.924Z,4.75
2023-04-10T23:56:47.541Z,2.22
2023-04-10T23:59:16.963Z,1.70
